sensor_id;sensor_type;location;lat;lon;timestamp;temperature;humidity
2200;DHT22;1106;48.762;9.168;2022-10-18T00:02:13;15.60;92.30
2200;DHT22;1106;48.762;9.168;2022-10-18T00:04:40;15.50;92.60
2200;DHT22;1106;48.762;9.168;2022-10-18T00:07:08;15.50;92.80
2200;DHT22;1106;48.762;9.168;2022-10-18T00:09:35;15.40;92.80
2200;DHT22;1106;48.762;9.168;2022-10-18T00:12:02;15.40;93.00
2200;DHT22;1106;48.762;9.168;2022-10-18T00:14:29;15.40;92.80
2200;DHT22;1106;48.762;9.168;2022-10-18T00:16:56;15.40;93.00
2200;DHT22;1106;48.762;9.168;2022-10-18T00:19:23;15.40;93.00
2200;DHT22;1106;48.762;9.168;2022-10-18T00:21:50;15.40;92.80
2200;DHT22;1106;48.762;9.168;2022-10-18T00:24:18;15.50;92.50
2200;DHT22;1106;48.762;9.168;2022-10-18T00:26:45;15.40;92.60
2200;DHT22;1106;48.762;9.168;2022-10-18T00:29:14;15.40;92.60
2200;DHT22;1106;48.762;9.168;2022-10-18T00:31:42;15.40;92.60
2200;DHT22;1106;48.762;9.168;2022-10-18T00:34:11;15.50;92.40
2200;DHT22;1106;48.762;9.168;2022-10-18T00:36:38;15.40;92.50
2200;DHT22;1106;48.762;9.168;2022-10-18T00:39:07;15.40;92.60
2200;DHT22;1106;48.762;9.168;2022-10-18T00:41:36;15.40;92.70
2200;DHT22;1106;48.762;9.168;2022-10-18T00:44:06;15.40;92.30
2200;DHT22;1106;48.762;9.168;2022-10-18T00:46:34;15.40;92.30
2200;DHT22;1106;48.762;9.168;2022-10-18T00:49:03;15.50;92.30
2200;DHT22;1106;48.762;9.168;2022-10-18T00:51:35;15.50;92.30
2200;DHT22;1106;48.762;9.168;2022-10-18T00:54:04;15.50;92.40
2200;DHT22;1106;48.762;9.168;2022-10-18T00:56:31;15.50;92.30
2200;DHT22;1106;48.762;9.168;2022-10-18T00:59:01;15.50;92.20
2200;DHT22;1106;48.762;9.168;2022-10-18T01:01:28;15.60;91.90
2200;DHT22;1106;48.762;9.168;2022-10-18T01:03:55;15.60;91.60
2200;DHT22;1106;48.762;9.168;2022-10-18T01:06:22;15.70;91.50
2200;DHT22;1106;48.762;9.168;2022-10-18T01:09:01;15.70;91.30
2200;DHT22;1106;48.762;9.168;2022-10-18T01:11:53;15.70;91.20
2200;DHT22;1106;48.762;9.168;2022-10-18T01:14:33;15.70;91.30
2200;DHT22;1106;48.762;9.168;2022-10-18T01:17:08;15.70;91.30
2200;DHT22;1106;48.762;9.168;2022-10-18T01:20:22;15.70;91.30
2200;DHT22;1106;48.762;9.168;2022-10-18T01:22:54;15.70;91.30
2200;DHT22;1106;48.762;9.168;2022-10-18T01:25:40;15.70;91.10
2200;DHT22;1106;48.762;9.168;2022-10-18T01:28:17;15.70;91.00
2200;DHT22;1106;48.762;9.168;2022-10-18T01:30:53;15.70;90.90
2200;DHT22;1106;48.762;9.168;2022-10-18T01:33:27;15.70;90.80
2200;DHT22;1106;48.762;9.168;2022-10-18T01:35:59;15.70;90.60
2200;DHT22;1106;48.762;9.168;2022-10-18T01:38:29;15.80;90.50
2200;DHT22;1106;48.762;9.168;2022-10-18T01:40:59;15.80;90.40
2200;DHT22;1106;48.762;9.168;2022-10-18T01:43:27;15.90;90.00
2200;DHT22;1106;48.762;9.168;2022-10-18T01:45:57;15.90;89.70
2200;DHT22;1106;48.762;9.168;2022-10-18T01:48:26;16.00;89.50
2200;DHT22;1106;48.762;9.168;2022-10-18T01:50:53;16.00;89.30
2200;DHT22;1106;48.762;9.168;2022-10-18T01:53:25;16.10;89.10
2200;DHT22;1106;48.762;9.168;2022-10-18T01:58:46;16.00;89.00
2200;DHT22;1106;48.762;9.168;2022-10-18T02:01:20;16.00;88.90
2200;DHT22;1106;48.762;9.168;2022-10-18T02:03:50;16.10;88.80
2200;DHT22;1106;48.762;9.168;2022-10-18T02:06:26;16.10;88.80
2200;DHT22;1106;48.762;9.168;2022-10-18T02:08:59;16.10;88.80
2200;DHT22;1106;48.762;9.168;2022-10-18T02:11:29;16.00;88.50
2200;DHT22;1106;48.762;9.168;2022-10-18T02:13:59;16.10;88.50
2200;DHT22;1106;48.762;9.168;2022-10-18T02:16:36;16.20;88.10
2200;DHT22;1106;48.762;9.168;2022-10-18T02:19:08;16.20;87.90
2200;DHT22;1106;48.762;9.168;2022-10-18T02:21:37;16.20;88.00
2200;DHT22;1106;48.762;9.168;2022-10-18T02:24:06;16.10;88.10
2200;DHT22;1106;48.762;9.168;2022-10-18T02:26:33;16.20;88.20
2200;DHT22;1106;48.762;9.168;2022-10-18T02:29:01;16.10;88.30
2200;DHT22;1106;48.762;9.168;2022-10-18T02:31:32;16.20;88.20
2200;DHT22;1106;48.762;9.168;2022-10-18T02:34:06;16.20;88.10
2200;DHT22;1106;48.762;9.168;2022-10-18T02:36:41;16.20;87.90
2200;DHT22;1106;48.762;9.168;2022-10-18T02:39:12;16.20;87.80
2200;DHT22;1106;48.762;9.168;2022-10-18T02:41:41;16.30;87.60
2200;DHT22;1106;48.762;9.168;2022-10-18T02:44:08;16.30;87.60
2200;DHT22;1106;48.762;9.168;2022-10-18T02:46:37;16.30;87.50
2200;DHT22;1106;48.762;9.168;2022-10-18T02:49:05;16.30;87.60
2200;DHT22;1106;48.762;9.168;2022-10-18T02:51:32;16.30;87.50
2200;DHT22;1106;48.762;9.168;2022-10-18T02:53:59;16.30;87.50
2200;DHT22;1106;48.762;9.168;2022-10-18T02:56:25;16.30;87.50
2200;DHT22;1106;48.762;9.168;2022-10-18T02:58:52;16.40;87.10
2200;DHT22;1106;48.762;9.168;2022-10-18T03:01:19;16.30;87.40
2200;DHT22;1106;48.762;9.168;2022-10-18T03:03:48;16.30;87.40
2200;DHT22;1106;48.762;9.168;2022-10-18T03:06:15;16.30;87.20
2200;DHT22;1106;48.762;9.168;2022-10-18T03:08:42;16.30;87.30
2200;DHT22;1106;48.762;9.168;2022-10-18T03:11:09;16.30;87.30
2200;DHT22;1106;48.762;9.168;2022-10-18T03:13:36;16.40;87.20
2200;DHT22;1106;48.762;9.168;2022-10-18T03:16:03;16.40;87.10
2200;DHT22;1106;48.762;9.168;2022-10-18T03:18:30;16.30;87.20
2200;DHT22;1106;48.762;9.168;2022-10-18T03:20:58;16.40;87.10
2200;DHT22;1106;48.762;9.168;2022-10-18T03:23:29;16.40;87.20
2200;DHT22;1106;48.762;9.168;2022-10-18T03:25:56;16.30;87.40
2200;DHT22;1106;48.762;9.168;2022-10-18T03:28:22;16.30;87.70
2200;DHT22;1106;48.762;9.168;2022-10-18T03:30:49;16.30;87.60
2200;DHT22;1106;48.762;9.168;2022-10-18T03:33:16;16.40;87.30
2200;DHT22;1106;48.762;9.168;2022-10-18T03:35:43;16.40;87.30
2200;DHT22;1106;48.762;9.168;2022-10-18T03:38:12;16.40;87.10
2200;DHT22;1106;48.762;9.168;2022-10-18T03:40:38;16.40;87.10
2200;DHT22;1106;48.762;9.168;2022-10-18T03:43:05;16.50;86.70
2200;DHT22;1106;48.762;9.168;2022-10-18T03:45:32;16.50;86.50
2200;DHT22;1106;48.762;9.168;2022-10-18T03:47:59;16.50;86.60
2200;DHT22;1106;48.762;9.168;2022-10-18T03:50:26;16.50;86.70
2200;DHT22;1106;48.762;9.168;2022-10-18T03:52:53;16.40;86.70
2200;DHT22;1106;48.762;9.168;2022-10-18T03:55:21;16.40;87.00
2200;DHT22;1106;48.762;9.168;2022-10-18T03:57:48;16.30;87.10
2200;DHT22;1106;48.762;9.168;2022-10-18T04:00:15;16.30;87.10
2200;DHT22;1106;48.762;9.168;2022-10-18T04:02:42;16.30;87.20
2200;DHT22;1106;48.762;9.168;2022-10-18T04:05:09;16.30;87.40
2200;DHT22;1106;48.762;9.168;2022-10-18T04:07:37;16.30;87.40
2200;DHT22;1106;48.762;9.168;2022-10-18T04:10:05;16.20;87.70
2200;DHT22;1106;48.762;9.168;2022-10-18T04:12:33;16.30;87.40
2200;DHT22;1106;48.762;9.168;2022-10-18T04:15:00;16.20;87.50
2200;DHT22;1106;48.762;9.168;2022-10-18T04:17:27;16.20;87.50
2200;DHT22;1106;48.762;9.168;2022-10-18T04:19:54;16.20;87.50
2200;DHT22;1106;48.762;9.168;2022-10-18T04:22:21;16.10;87.80
2200;DHT22;1106;48.762;9.168;2022-10-18T04:24:47;16.10;87.90
2200;DHT22;1106;48.762;9.168;2022-10-18T04:27:15;16.10;87.90
2200;DHT22;1106;48.762;9.168;2022-10-18T04:29:43;16.10;88.00
2200;DHT22;1106;48.762;9.168;2022-10-18T04:32:10;16.00;88.30
2200;DHT22;1106;48.762;9.168;2022-10-18T04:34:37;16.00;88.30
2200;DHT22;1106;48.762;9.168;2022-10-18T04:37:04;16.10;88.30
2200;DHT22;1106;48.762;9.168;2022-10-18T04:39:31;16.10;88.10
2200;DHT22;1106;48.762;9.168;2022-10-18T04:41:58;16.10;88.00
2200;DHT22;1106;48.762;9.168;2022-10-18T04:44:25;16.00;88.30
2200;DHT22;1106;48.762;9.168;2022-10-18T04:46:53;16.00;88.40
2200;DHT22;1106;48.762;9.168;2022-10-18T04:49:20;16.00;88.40
2200;DHT22;1106;48.762;9.168;2022-10-18T04:51:47;16.00;88.50
2200;DHT22;1106;48.762;9.168;2022-10-18T04:54:14;16.10;88.30
2200;DHT22;1106;48.762;9.168;2022-10-18T04:56:41;16.00;88.30
2200;DHT22;1106;48.762;9.168;2022-10-18T04:59:08;16.00;88.30
2200;DHT22;1106;48.762;9.168;2022-10-18T05:01:35;16.10;88.10
2200;DHT22;1106;48.762;9.168;2022-10-18T05:04:03;16.20;87.50
2200;DHT22;1106;48.762;9.168;2022-10-18T05:06:30;16.40;87.00
2200;DHT22;1106;48.762;9.168;2022-10-18T05:08:57;16.50;86.60
2200;DHT22;1106;48.762;9.168;2022-10-18T05:11:24;16.40;86.60
2200;DHT22;1106;48.762;9.168;2022-10-18T05:13:51;16.50;86.60
2200;DHT22;1106;48.762;9.168;2022-10-18T05:16:18;16.50;86.20
2200;DHT22;1106;48.762;9.168;2022-10-18T05:18:45;16.60;86.00
2200;DHT22;1106;48.762;9.168;2022-10-18T05:21:16;16.60;85.70
2200;DHT22;1106;48.762;9.168;2022-10-18T05:23:43;16.80;84.90
2200;DHT22;1106;48.762;9.168;2022-10-18T05:26:10;16.90;84.60
2200;DHT22;1106;48.762;9.168;2022-10-18T05:28:37;16.90;84.20
2200;DHT22;1106;48.762;9.168;2022-10-18T05:31:05;17.00;84.00
2200;DHT22;1106;48.762;9.168;2022-10-18T05:33:32;17.00;83.80
2200;DHT22;1106;48.762;9.168;2022-10-18T05:35:59;17.10;83.50
2200;DHT22;1106;48.762;9.168;2022-10-18T05:38:28;17.10;83.30
2200;DHT22;1106;48.762;9.168;2022-10-18T05:40:56;17.10;83.40
2200;DHT22;1106;48.762;9.168;2022-10-18T05:43:25;17.00;83.90
2200;DHT22;1106;48.762;9.168;2022-10-18T05:45:52;17.00;84.30
2200;DHT22;1106;48.762;9.168;2022-10-18T05:48:20;16.90;84.50
2200;DHT22;1106;48.762;9.168;2022-10-18T05:50:46;16.90;84.80
2200;DHT22;1106;48.762;9.168;2022-10-18T05:53:13;16.90;84.90
2200;DHT22;1106;48.762;9.168;2022-10-18T05:55:42;16.80;85.10
2200;DHT22;1106;48.762;9.168;2022-10-18T05:58:09;16.90;85.00
2200;DHT22;1106;48.762;9.168;2022-10-18T06:00:36;16.90;85.00
2200;DHT22;1106;48.762;9.168;2022-10-18T06:03:06;16.80;85.10
2200;DHT22;1106;48.762;9.168;2022-10-18T06:05:33;16.80;85.20
2200;DHT22;1106;48.762;9.168;2022-10-18T06:08:00;16.90;85.20
2200;DHT22;1106;48.762;9.168;2022-10-18T06:10:27;16.90;85.30
2200;DHT22;1106;48.762;9.168;2022-10-18T06:12:55;16.90;85.40
2200;DHT22;1106;48.762;9.168;2022-10-18T06:15:22;16.90;85.30
2200;DHT22;1106;48.762;9.168;2022-10-18T06:17:49;16.90;85.40
2200;DHT22;1106;48.762;9.168;2022-10-18T06:20:16;17.00;85.20
2200;DHT22;1106;48.762;9.168;2022-10-18T06:22:44;17.00;85.10
2200;DHT22;1106;48.762;9.168;2022-10-18T06:25:11;17.20;84.60
2200;DHT22;1106;48.762;9.168;2022-10-18T06:27:38;17.30;84.00
2200;DHT22;1106;48.762;9.168;2022-10-18T06:30:08;17.50;83.80
2200;DHT22;1106;48.762;9.168;2022-10-18T06:32:36;17.50;83.50
2200;DHT22;1106;48.762;9.168;2022-10-18T06:35:03;17.60;83.10
2200;DHT22;1106;48.762;9.168;2022-10-18T06:37:30;17.80;82.60
2200;DHT22;1106;48.762;9.168;2022-10-18T06:39:57;17.90;82.00
2200;DHT22;1106;48.762;9.168;2022-10-18T06:42:24;18.00;81.40
2200;DHT22;1106;48.762;9.168;2022-10-18T06:44:51;18.10;80.90
2200;DHT22;1106;48.762;9.168;2022-10-18T06:47:19;18.20;81.00
2200;DHT22;1106;48.762;9.168;2022-10-18T06:49:46;18.30;80.20
2200;DHT22;1106;48.762;9.168;2022-10-18T06:52:16;18.40;79.70
2200;DHT22;1106;48.762;9.168;2022-10-18T06:54:43;18.50;79.70
2200;DHT22;1106;48.762;9.168;2022-10-18T06:57:10;18.60;79.30
2200;DHT22;1106;48.762;9.168;2022-10-18T06:59:37;18.70;78.80
2200;DHT22;1106;48.762;9.168;2022-10-18T07:02:03;18.80;78.40
2200;DHT22;1106;48.762;9.168;2022-10-18T07:04:32;18.90;78.00
2200;DHT22;1106;48.762;9.168;2022-10-18T07:06:59;19.00;77.90
2200;DHT22;1106;48.762;9.168;2022-10-18T07:09:26;19.10;77.60
2200;DHT22;1106;48.762;9.168;2022-10-18T07:11:53;19.10;77.40
2200;DHT22;1106;48.762;9.168;2022-10-18T07:14:19;19.20;77.30
2200;DHT22;1106;48.762;9.168;2022-10-18T07:16:46;19.20;77.10
2200;DHT22;1106;48.762;9.168;2022-10-18T07:19:16;19.30;77.00
2200;DHT22;1106;48.762;9.168;2022-10-18T07:21:44;19.30;76.90
2200;DHT22;1106;48.762;9.168;2022-10-18T07:24:11;19.40;76.80
2200;DHT22;1106;48.762;9.168;2022-10-18T07:26:38;19.40;76.60
2200;DHT22;1106;48.762;9.168;2022-10-18T07:29:08;19.40;76.70
2200;DHT22;1106;48.762;9.168;2022-10-18T07:31:35;19.50;76.20
2200;DHT22;1106;48.762;9.168;2022-10-18T07:34:03;19.60;76.20
2200;DHT22;1106;48.762;9.168;2022-10-18T07:36:30;19.70;76.00
2200;DHT22;1106;48.762;9.168;2022-10-18T07:38:59;19.80;75.90
2200;DHT22;1106;48.762;9.168;2022-10-18T07:41:26;19.80;75.70
2200;DHT22;1106;48.762;9.168;2022-10-18T07:43:53;20.00;75.20
2200;DHT22;1106;48.762;9.168;2022-10-18T07:46:22;20.10;74.80
2200;DHT22;1106;48.762;9.168;2022-10-18T07:48:51;20.10;74.70
2200;DHT22;1106;48.762;9.168;2022-10-18T07:51:20;20.10;74.60
2200;DHT22;1106;48.762;9.168;2022-10-18T07:53:48;20.30;74.30
2200;DHT22;1106;48.762;9.168;2022-10-18T07:56:19;20.40;73.90
2200;DHT22;1106;48.762;9.168;2022-10-18T07:58:49;20.50;73.30
2200;DHT22;1106;48.762;9.168;2022-10-18T08:01:18;20.60;73.20
2200;DHT22;1106;48.762;9.168;2022-10-18T08:03:45;20.70;72.80
2200;DHT22;1106;48.762;9.168;2022-10-18T08:06:14;20.80;73.00
2200;DHT22;1106;48.762;9.168;2022-10-18T08:08:43;20.80;72.70
2200;DHT22;1106;48.762;9.168;2022-10-18T08:11:11;20.90;72.50
2200;DHT22;1106;48.762;9.168;2022-10-18T08:13:41;21.00;72.30
2200;DHT22;1106;48.762;9.168;2022-10-18T08:16:10;21.10;72.30
2200;DHT22;1106;48.762;9.168;2022-10-18T08:18:38;21.20;72.00
2200;DHT22;1106;48.762;9.168;2022-10-18T08:21:09;21.30;71.90
2200;DHT22;1106;48.762;9.168;2022-10-18T08:23:36;21.30;72.00
2200;DHT22;1106;48.762;9.168;2022-10-18T08:26:05;21.30;71.70
2200;DHT22;1106;48.762;9.168;2022-10-18T08:28:32;21.40;71.70
2200;DHT22;1106;48.762;9.168;2022-10-18T08:31:02;21.40;71.60
2200;DHT22;1106;48.762;9.168;2022-10-18T08:33:30;21.50;71.40
2200;DHT22;1106;48.762;9.168;2022-10-18T08:35:59;21.50;71.10
2200;DHT22;1106;48.762;9.168;2022-10-18T08:38:28;21.60;71.10
2200;DHT22;1106;48.762;9.168;2022-10-18T08:40:58;21.60;70.80
2200;DHT22;1106;48.762;9.168;2022-10-18T08:43:30;21.60;70.90
2200;DHT22;1106;48.762;9.168;2022-10-18T08:45:59;21.60;70.80
2200;DHT22;1106;48.762;9.168;2022-10-18T08:48:33;21.60;70.70
2200;DHT22;1106;48.762;9.168;2022-10-18T08:51:02;21.80;70.10
2200;DHT22;1106;48.762;9.168;2022-10-18T08:53:34;21.70;70.40
2200;DHT22;1106;48.762;9.168;2022-10-18T08:56:05;21.80;70.20
2200;DHT22;1106;48.762;9.168;2022-10-18T08:58:40;21.90;70.40
2200;DHT22;1106;48.762;9.168;2022-10-18T09:01:16;22.00;69.80
2200;DHT22;1106;48.762;9.168;2022-10-18T09:04:10;22.20;69.60
2200;DHT22;1106;48.762;9.168;2022-10-18T09:06:49;22.30;69.40
2200;DHT22;1106;48.762;9.168;2022-10-18T09:09:25;22.30;69.00
2200;DHT22;1106;48.762;9.168;2022-10-18T09:12:01;22.40;69.10
2200;DHT22;1106;48.762;9.168;2022-10-18T09:14:54;22.40;68.40
2200;DHT22;1106;48.762;9.168;2022-10-18T09:17:32;22.50;68.70
2200;DHT22;1106;48.762;9.168;2022-10-18T09:20:12;22.60;68.20
2200;DHT22;1106;48.762;9.168;2022-10-18T09:22:51;22.60;68.20
2200;DHT22;1106;48.762;9.168;2022-10-18T09:25:20;22.70;67.60
2200;DHT22;1106;48.762;9.168;2022-10-18T09:27:56;22.60;67.80
2200;DHT22;1106;48.762;9.168;2022-10-18T09:30:39;22.80;67.60
2200;DHT22;1106;48.762;9.168;2022-10-18T09:33:39;22.90;67.50
2200;DHT22;1106;48.762;9.168;2022-10-18T09:36:13;23.10;66.90
2200;DHT22;1106;48.762;9.168;2022-10-18T09:38:45;23.30;66.50
2200;DHT22;1106;48.762;9.168;2022-10-18T09:41:17;23.50;66.40
2200;DHT22;1106;48.762;9.168;2022-10-18T09:43:49;23.60;66.10
2200;DHT22;1106;48.762;9.168;2022-10-18T09:46:20;23.60;65.30
2200;DHT22;1106;48.762;9.168;2022-10-18T09:48:50;23.50;65.40
2200;DHT22;1106;48.762;9.168;2022-10-18T09:51:23;23.10;67.70
2200;DHT22;1106;48.762;9.168;2022-10-18T09:54:07;22.50;69.20
2200;DHT22;1106;48.762;9.168;2022-10-18T09:56:39;22.30;70.00
2200;DHT22;1106;48.762;9.168;2022-10-18T10:02:00;21.80;71.20
2200;DHT22;1106;48.762;9.168;2022-10-18T10:04:27;21.60;71.90
2200;DHT22;1106;48.762;9.168;2022-10-18T10:06:59;21.40;72.70
2200;DHT22;1106;48.762;9.168;2022-10-18T10:09:27;21.40;72.80
2200;DHT22;1106;48.762;9.168;2022-10-18T10:11:55;21.60;72.30
2200;DHT22;1106;48.762;9.168;2022-10-18T10:14:24;21.70;72.00
2200;DHT22;1106;48.762;9.168;2022-10-18T10:16:53;21.70;72.10
2200;DHT22;1106;48.762;9.168;2022-10-18T10:19:27;21.80;71.90
2200;DHT22;1106;48.762;9.168;2022-10-18T10:21:59;21.80;71.90
2200;DHT22;1106;48.762;9.168;2022-10-18T10:24:42;21.80;71.70
2200;DHT22;1106;48.762;9.168;2022-10-18T10:27:18;21.70;72.00
2200;DHT22;1106;48.762;9.168;2022-10-18T10:29:52;21.70;72.20
2200;DHT22;1106;48.762;9.168;2022-10-18T10:32:24;21.80;71.90
2200;DHT22;1106;48.762;9.168;2022-10-18T10:34:51;22.00;71.30
2200;DHT22;1106;48.762;9.168;2022-10-18T10:37:32;22.10;70.60
2200;DHT22;1106;48.762;9.168;2022-10-18T10:40:17;22.30;70.20
2200;DHT22;1106;48.762;9.168;2022-10-18T10:42:55;22.30;70.30
2200;DHT22;1106;48.762;9.168;2022-10-18T10:45:24;22.40;69.70
2200;DHT22;1106;48.762;9.168;2022-10-18T10:47:53;22.40;69.40
2200;DHT22;1106;48.762;9.168;2022-10-18T10:50:25;22.20;70.10
2200;DHT22;1106;48.762;9.168;2022-10-18T10:52:54;22.40;69.70
2200;DHT22;1106;48.762;9.168;2022-10-18T10:55:23;22.50;69.30
2200;DHT22;1106;48.762;9.168;2022-10-18T10:57:54;22.30;69.80
2200;DHT22;1106;48.762;9.168;2022-10-18T11:00:39;22.20;69.70
2200;DHT22;1106;48.762;9.168;2022-10-18T11:03:13;22.20;69.70
2200;DHT22;1106;48.762;9.168;2022-10-18T11:05:45;22.10;70.20
2200;DHT22;1106;48.762;9.168;2022-10-18T11:08:15;22.10;70.70
2200;DHT22;1106;48.762;9.168;2022-10-18T11:10:53;22.10;71.00
2200;DHT22;1106;48.762;9.168;2022-10-18T11:13:30;22.20;70.60
2200;DHT22;1106;48.762;9.168;2022-10-18T11:16:04;22.30;70.30
2200;DHT22;1106;48.762;9.168;2022-10-18T11:18:35;22.60;69.70
2200;DHT22;1106;48.762;9.168;2022-10-18T11:21:04;22.70;69.00
2200;DHT22;1106;48.762;9.168;2022-10-18T11:23:37;22.90;68.40
2200;DHT22;1106;48.762;9.168;2022-10-18T11:26:23;23.00;68.20
2200;DHT22;1106;48.762;9.168;2022-10-18T11:29:11;23.20;68.10
2200;DHT22;1106;48.762;9.168;2022-10-18T11:31:46;23.30;67.90
2200;DHT22;1106;48.762;9.168;2022-10-18T12:05:25;23.00;69.00
2200;DHT22;1106;48.762;9.168;2022-10-18T12:07:58;23.30;68.60
2200;DHT22;1106;48.762;9.168;2022-10-18T12:10:28;23.60;67.70
2200;DHT22;1106;48.762;9.168;2022-10-18T12:12:59;24.00;66.90
2200;DHT22;1106;48.762;9.168;2022-10-18T12:15:28;24.20;66.60
2200;DHT22;1106;48.762;9.168;2022-10-18T12:17:59;24.20;66.00
2200;DHT22;1106;48.762;9.168;2022-10-18T12:20:31;24.40;65.90
2200;DHT22;1106;48.762;9.168;2022-10-18T12:23:01;24.40;65.40
2200;DHT22;1106;48.762;9.168;2022-10-18T12:25:32;24.40;64.90
2200;DHT22;1106;48.762;9.168;2022-10-18T12:28:04;24.30;65.40
2200;DHT22;1106;48.762;9.168;2022-10-18T12:30:39;24.40;64.90
2200;DHT22;1106;48.762;9.168;2022-10-18T12:33:09;24.50;63.40
2200;DHT22;1106;48.762;9.168;2022-10-18T12:35:49;24.00;63.80
2200;DHT22;1106;48.762;9.168;2022-10-18T12:38:23;23.60;65.40
2200;DHT22;1106;48.762;9.168;2022-10-18T12:40:52;23.40;65.90
2200;DHT22;1106;48.762;9.168;2022-10-18T12:43:22;23.20;66.00
2200;DHT22;1106;48.762;9.168;2022-10-18T12:45:52;23.30;66.50
2200;DHT22;1106;48.762;9.168;2022-10-18T12:48:34;23.10;67.70
2200;DHT22;1106;48.762;9.168;2022-10-18T12:51:11;22.70;68.80
2200;DHT22;1106;48.762;9.168;2022-10-18T12:53:40;22.60;69.00
2200;DHT22;1106;48.762;9.168;2022-10-18T12:56:34;22.50;68.80
2200;DHT22;1106;48.762;9.168;2022-10-18T13:02:24;22.20;70.20
2200;DHT22;1106;48.762;9.168;2022-10-18T13:04:51;22.20;70.20
2200;DHT22;1106;48.762;9.168;2022-10-18T13:07:37;22.10;70.50
2200;DHT22;1106;48.762;9.168;2022-10-18T13:10:34;22.10;70.80
2200;DHT22;1106;48.762;9.168;2022-10-18T13:13:37;22.00;72.00
2200;DHT22;1106;48.762;9.168;2022-10-18T13:16:35;22.10;72.20
2200;DHT22;1106;48.762;9.168;2022-10-18T13:19:19;22.20;71.80
2200;DHT22;1106;48.762;9.168;2022-10-18T13:21:54;22.00;73.30
2200;DHT22;1106;48.762;9.168;2022-10-18T13:24:31;21.90;73.50
2200;DHT22;1106;48.762;9.168;2022-10-18T13:27:16;21.90;73.90
2200;DHT22;1106;48.762;9.168;2022-10-18T13:29:54;22.00;73.00
2200;DHT22;1106;48.762;9.168;2022-10-18T13:32:30;22.10;72.30
2200;DHT22;1106;48.762;9.168;2022-10-18T13:34:58;22.30;72.00
2200;DHT22;1106;48.762;9.168;2022-10-18T13:37:26;22.40;70.90
2200;DHT22;1106;48.762;9.168;2022-10-18T13:40:22;22.10;70.70
2200;DHT22;1106;48.762;9.168;2022-10-18T13:42:49;21.90;71.20
2200;DHT22;1106;48.762;9.168;2022-10-18T13:45:53;21.90;71.60
2200;DHT22;1106;48.762;9.168;2022-10-18T13:48:49;21.80;72.00
2200;DHT22;1106;48.762;9.168;2022-10-18T13:51:34;21.80;71.90
2200;DHT22;1106;48.762;9.168;2022-10-18T13:54:14;21.90;71.60
2200;DHT22;1106;48.762;9.168;2022-10-18T13:57:00;22.10;70.30
2200;DHT22;1106;48.762;9.168;2022-10-18T13:59:56;22.10;70.20
2200;DHT22;1106;48.762;9.168;2022-10-18T14:02:49;22.20;70.50
2200;DHT22;1106;48.762;9.168;2022-10-18T14:05:30;22.40;69.40
2200;DHT22;1106;48.762;9.168;2022-10-18T14:08:09;22.20;69.20
2200;DHT22;1106;48.762;9.168;2022-10-18T14:10:42;21.90;70.10
2200;DHT22;1106;48.762;9.168;2022-10-18T14:13:19;21.70;70.50
2200;DHT22;1106;48.762;9.168;2022-10-18T14:15:49;21.60;70.40
2200;DHT22;1106;48.762;9.168;2022-10-18T14:18:20;21.60;71.00
2200;DHT22;1106;48.762;9.168;2022-10-18T14:20:53;21.80;71.80
2200;DHT22;1106;48.762;9.168;2022-10-18T14:23:24;21.80;73.10
2200;DHT22;1106;48.762;9.168;2022-10-18T14:26:00;21.60;73.20
2200;DHT22;1106;48.762;9.168;2022-10-18T14:28:32;21.40;74.50
2200;DHT22;1106;48.762;9.168;2022-10-18T14:31:01;21.50;74.80
2200;DHT22;1106;48.762;9.168;2022-10-18T14:33:33;21.70;74.90
2200;DHT22;1106;48.762;9.168;2022-10-18T14:36:05;21.70;76.20
2200;DHT22;1106;48.762;9.168;2022-10-18T14:38:34;21.80;76.40
2200;DHT22;1106;48.762;9.168;2022-10-18T14:41:06;21.70;76.30
2200;DHT22;1106;48.762;9.168;2022-10-18T14:43:39;21.60;76.20
2200;DHT22;1106;48.762;9.168;2022-10-18T14:46:15;21.50;76.50
2200;DHT22;1106;48.762;9.168;2022-10-18T14:48:51;21.50;76.60
2200;DHT22;1106;48.762;9.168;2022-10-18T14:51:18;21.50;76.60
2200;DHT22;1106;48.762;9.168;2022-10-18T14:53:46;21.60;76.30
2200;DHT22;1106;48.762;9.168;2022-10-18T14:56:21;21.70;76.10
2200;DHT22;1106;48.762;9.168;2022-10-18T14:58:50;21.80;75.70
2200;DHT22;1106;48.762;9.168;2022-10-18T15:01:19;21.80;75.70
2200;DHT22;1106;48.762;9.168;2022-10-18T15:03:47;21.90;75.50
2200;DHT22;1106;48.762;9.168;2022-10-18T15:06:16;22.00;75.40
2200;DHT22;1106;48.762;9.168;2022-10-18T15:08:46;22.10;74.80
2200;DHT22;1106;48.762;9.168;2022-10-18T15:11:14;22.00;75.00
2200;DHT22;1106;48.762;9.168;2022-10-18T15:13:47;22.00;75.30
2200;DHT22;1106;48.762;9.168;2022-10-18T15:16:17;22.00;74.20
2200;DHT22;1106;48.762;9.168;2022-10-18T15:18:58;21.70;75.30
2200;DHT22;1106;48.762;9.168;2022-10-18T15:21:25;21.60;76.20
2200;DHT22;1106;48.762;9.168;2022-10-18T15:23:52;21.50;76.60
2200;DHT22;1106;48.762;9.168;2022-10-18T15:26:22;21.50;76.50
2200;DHT22;1106;48.762;9.168;2022-10-18T15:32:04;21.30;77.10
2200;DHT22;1106;48.762;9.168;2022-10-18T15:34:33;21.30;77.40
2200;DHT22;1106;48.762;9.168;2022-10-18T15:37:22;21.40;77.30
2200;DHT22;1106;48.762;9.168;2022-10-18T15:42:54;21.50;77.10
2200;DHT22;1106;48.762;9.168;2022-10-18T15:45:29;21.40;77.50
2200;DHT22;1106;48.762;9.168;2022-10-18T15:48:02;21.50;77.10
2200;DHT22;1106;48.762;9.168;2022-10-18T15:50:44;21.30;77.90
2200;DHT22;1106;48.762;9.168;2022-10-18T15:53:31;21.10;78.60
2200;DHT22;1106;48.762;9.168;2022-10-18T15:56:01;21.20;78.40
2200;DHT22;1106;48.762;9.168;2022-10-18T15:58:39;21.10;78.70
2200;DHT22;1106;48.762;9.168;2022-10-18T16:01:13;21.10;78.80
2200;DHT22;1106;48.762;9.168;2022-10-18T16:03:45;21.00;79.00
2200;DHT22;1106;48.762;9.168;2022-10-18T16:06:13;21.00;79.10
2200;DHT22;1106;48.762;9.168;2022-10-18T16:08:43;20.90;79.40
2200;DHT22;1106;48.762;9.168;2022-10-18T16:11:13;20.90;79.60
2200;DHT22;1106;48.762;9.168;2022-10-18T16:13:41;20.80;79.80
2200;DHT22;1106;48.762;9.168;2022-10-18T16:16:13;20.80;80.10
2200;DHT22;1106;48.762;9.168;2022-10-18T16:18:41;20.70;80.20
2200;DHT22;1106;48.762;9.168;2022-10-18T16:21:15;20.60;80.50
2200;DHT22;1106;48.762;9.168;2022-10-18T16:23:43;20.60;80.40
2200;DHT22;1106;48.762;9.168;2022-10-18T16:26:10;20.40;80.90
2200;DHT22;1106;48.762;9.168;2022-10-18T16:28:37;20.40;80.90
2200;DHT22;1106;48.762;9.168;2022-10-18T16:31:05;20.30;81.50
2200;DHT22;1106;48.762;9.168;2022-10-18T16:33:34;20.30;81.50
2200;DHT22;1106;48.762;9.168;2022-10-18T16:36:03;20.20;81.80
2200;DHT22;1106;48.762;9.168;2022-10-18T16:38:32;20.20;81.90
2200;DHT22;1106;48.762;9.168;2022-10-18T16:40:59;20.10;82.10
2200;DHT22;1106;48.762;9.168;2022-10-18T16:43:27;20.10;81.80
2200;DHT22;1106;48.762;9.168;2022-10-18T16:45:54;20.10;82.00
2200;DHT22;1106;48.762;9.168;2022-10-18T16:48:24;20.20;81.90
2200;DHT22;1106;48.762;9.168;2022-10-18T16:50:54;20.10;82.20
2200;DHT22;1106;48.762;9.168;2022-10-18T16:53:22;20.10;82.30
2200;DHT22;1106;48.762;9.168;2022-10-18T16:55:51;20.10;82.00
2200;DHT22;1106;48.762;9.168;2022-10-18T16:58:19;20.10;82.20
2200;DHT22;1106;48.762;9.168;2022-10-18T17:00:47;20.10;82.20
2200;DHT22;1106;48.762;9.168;2022-10-18T17:03:14;20.10;81.90
2200;DHT22;1106;48.762;9.168;2022-10-18T17:05:41;20.00;82.40
2200;DHT22;1106;48.762;9.168;2022-10-18T17:08:16;19.90;82.60
2200;DHT22;1106;48.762;9.168;2022-10-18T17:10:46;19.90;82.60
2200;DHT22;1106;48.762;9.168;2022-10-18T17:13:14;19.90;82.70
2200;DHT22;1106;48.762;9.168;2022-10-18T17:15:41;19.90;82.90